createdAt,value
2022-09-20T00:01:36.745Z,101142.41
2022-09-20T00:04:05.189Z,101148.78
2022-09-20T00:06:32.241Z,101150.19
2022-09-20T00:08:59.533Z,101147.94
2022-09-20T00:11:26.458Z,101151.47
2022-09-20T00:13:53.163Z,101151.56
2022-09-20T00:16:20.626Z,101158.06
2022-09-20T00:18:53.625Z,101154.66
2022-09-20T00:21:20.998Z,101160.09
2022-09-20T00:23:47.328Z,101158.72
2022-09-20T00:26:17.514Z,101157.22
2022-09-20T00:28:44.086Z,101157.22
2022-09-20T00:31:10.786Z,101155.94
2022-09-20T00:33:55.469Z,101157.97
2022-09-20T00:36:21.777Z,101161.47
2022-09-20T00:38:48.092Z,101162.97
2022-09-20T00:41:14.407Z,101160.84
2022-09-20T00:43:41.408Z,101161.38
2022-09-20T00:46:19.831Z,101164.97
2022-09-20T00:48:46.330Z,101154.25
2022-09-20T00:51:13.777Z,101153.91
2022-09-20T00:53:40.996Z,101155.31
2022-09-20T00:56:08.853Z,101162.53
2022-09-20T00:58:37.756Z,101163.94
2022-09-20T01:01:04.129Z,101169.69
2022-09-20T01:03:31.620Z,101165.31
2022-09-20T01:05:57.938Z,101160.94
2022-09-20T01:08:25.229Z,101171.06
2022-09-20T01:10:51.851Z,101165.19
2022-09-20T01:13:18.157Z,101165.09
2022-09-20T01:15:44.863Z,101169.56
2022-09-20T01:18:11.178Z,101162.88
2022-09-20T01:20:38.909Z,101173.31
2022-09-20T01:23:23.950Z,101166.81
2022-09-20T01:26:08.842Z,101170.31
2022-09-20T01:28:35.168Z,101169.56
2022-09-20T01:31:18.189Z,101175.94
2022-09-20T01:33:46.845Z,101173.59
2022-09-20T01:36:14.041Z,101175.31
2022-09-20T01:38:43.378Z,101172.34
2022-09-20T01:41:18.025Z,101169.34
2022-09-20T01:43:58.908Z,101168.06
2022-09-20T01:46:28.824Z,101172.34
2022-09-20T01:48:56.348Z,101167.34
2022-09-20T01:51:29.609Z,101181.81
2022-09-20T01:54:01.524Z,101182.31
2022-09-20T01:56:39.097Z,101179.47
2022-09-20T01:59:24.909Z,101183.72
2022-09-20T02:01:54.221Z,101193.72
2022-09-20T02:04:29.889Z,101182.31
2022-09-20T02:07:14.946Z,101190.84
2022-09-20T02:09:56.974Z,101192.34
2022-09-20T02:12:27.120Z,101196.59
2022-09-20T02:15:07.051Z,101189.38
2022-09-20T02:17:34.599Z,101193.53
2022-09-20T02:20:03.655Z,101198.31
2022-09-20T02:22:29.971Z,101200.13
2022-09-20T02:25:15.253Z,101201.31
2022-09-20T02:28:00.315Z,101189.69
2022-09-20T02:30:44.787Z,101187.00
2022-09-20T02:33:12.926Z,101191.50
2022-09-20T02:35:39.173Z,101187.25
2022-09-20T02:38:16.025Z,101201.50
2022-09-20T02:40:51.340Z,101202.91
2022-09-20T02:43:21.362Z,101197.03
2022-09-20T02:45:53.724Z,101199.28
2022-09-20T02:48:21.682Z,101200.75
2022-09-20T02:50:54.912Z,101194.50
2022-09-20T02:53:39.949Z,101201.50
2022-09-20T02:56:13.319Z,101204.25
2022-09-20T02:58:57.457Z,101203.53
2022-09-20T03:01:26.633Z,101202.78
2022-09-20T03:03:58.463Z,101208.53
2022-09-20T03:06:28.267Z,101207.06
2022-09-20T03:09:00.678Z,101208.53
2022-09-20T03:11:32.990Z,101217.16
2022-09-20T03:14:05.402Z,101214.28
2022-09-20T03:16:52.402Z,101215.22
2022-09-20T03:19:23.420Z,101214.78
2022-09-20T03:21:59.694Z,101221.44
2022-09-20T03:24:39.837Z,101228.53
2022-09-20T03:27:24.666Z,101222.78
2022-09-20T03:29:50.897Z,101223.53
2022-09-20T03:32:26.764Z,101229.38
2022-09-20T03:35:07.069Z,101245.16
2022-09-20T03:37:55.806Z,101234.41
2022-09-20T03:40:44.188Z,101234.41
2022-09-20T03:43:18.404Z,101233.66
2022-09-20T03:45:53.198Z,101229.94
2022-09-20T03:48:19.472Z,101232.69
2022-09-20T03:50:54.653Z,101240.88
2022-09-20T03:53:41.937Z,101235.13
2022-09-20T03:56:13.325Z,101240.13
2022-09-20T03:58:58.547Z,101240.88
2022-09-20T04:01:45.245Z,101238.00
2022-09-20T04:04:25.683Z,101242.25
2022-09-20T04:07:05.213Z,101244.41
2022-09-20T04:09:47.598Z,101250.13
2022-09-20T04:12:27.113Z,101253.00
2022-09-20T04:15:12.572Z,101252.34
2022-09-20T04:17:41.594Z,101251.09
2022-09-20T04:20:13.658Z,101251.31
2022-09-20T04:22:40.061Z,101248.31
2022-09-20T04:25:19.955Z,101250.88
2022-09-20T04:27:47.175Z,101252.13
2022-09-20T04:30:17.263Z,101244.91
2022-09-20T04:32:48.034Z,101250.56
2022-09-20T04:35:54.170Z,101251.31
2022-09-20T04:38:20.651Z,101246.31
2022-09-20T04:40:55.544Z,101246.94
2022-09-20T04:43:37.851Z,101248.53
2022-09-20T04:46:19.960Z,101258.34
2022-09-20T04:48:46.279Z,101252.59
2022-09-20T04:51:24.011Z,101249.59
2022-09-20T04:53:55.500Z,101246.09
2022-09-20T04:56:40.270Z,101263.97
2022-09-20T04:59:10.202Z,101261.22
2022-09-20T05:01:43.491Z,101262.59
2022-09-20T05:04:28.338Z,101260.88
2022-09-20T05:07:13.583Z,101264.41
2022-09-20T05:09:55.184Z,101267.91
2022-09-20T05:12:39.851Z,101276.41
2022-09-20T05:15:11.676Z,101283.63
2022-09-20T05:18:10.757Z,101272.13
2022-09-20T05:21:03.524Z,101293.75
2022-09-20T05:23:33.292Z,101286.41
2022-09-20T05:26:09.778Z,101285.75
2022-09-20T05:28:39.017Z,101294.50
2022-09-20T05:31:08.097Z,101294.38
2022-09-20T05:33:44.911Z,101302.88
2022-09-20T05:36:23.207Z,101297.91
2022-09-20T05:38:56.377Z,101315.88
2022-09-20T05:41:45.091Z,101305.88
2022-09-20T05:44:15.815Z,101308.75
2022-09-20T05:46:50.011Z,101308.63
2022-09-20T05:49:19.670Z,101322.38
2022-09-20T05:51:53.798Z,101318.03
2022-09-20T05:54:29.524Z,101317.25
2022-09-20T05:57:02.281Z,101320.91
2022-09-20T05:59:40.016Z,101328.75
2022-09-20T06:02:21.525Z,101326.53
2022-09-20T06:04:51.871Z,101329.41
2022-09-20T06:07:38.546Z,101336.50
2022-09-20T06:10:24.618Z,101333.13
2022-09-20T06:13:09.513Z,101339.63
2022-09-20T06:15:50.330Z,101333.75
2022-09-20T06:18:16.571Z,101338.13
2022-09-20T06:20:56.157Z,101343.13
2022-09-20T06:23:22.494Z,101346.63
2022-09-20T06:25:50.957Z,101339.38
2022-09-20T06:28:21.111Z,101344.50
2022-09-20T06:30:51.162Z,101348.00
2022-09-20T06:33:17.461Z,101356.63
2022-09-20T06:35:53.829Z,101358.13
2022-09-20T06:39:00.534Z,101353.63
2022-09-20T06:41:28.242Z,101350.88
2022-09-20T06:43:59.032Z,101365.91
2022-09-20T06:46:28.843Z,101359.38
2022-09-20T06:48:55.478Z,101368.63
2022-09-20T06:51:22.633Z,101364.38
2022-09-20T06:53:48.949Z,101365.91
2022-09-20T06:56:16.780Z,101372.50
2022-09-20T06:58:43.112Z,101366.63
2022-09-20T07:01:09.496Z,101365.13
2022-09-20T07:03:35.842Z,101366.63
2022-09-20T07:06:04.587Z,101371.63
2022-09-20T07:08:30.980Z,101383.13
2022-09-20T07:10:57.288Z,101380.88
2022-09-20T07:13:24.049Z,101381.00
2022-09-20T07:15:51.129Z,101389.34
2022-09-20T07:18:17.450Z,101394.47
2022-09-20T07:20:44.624Z,101395.09
2022-09-20T07:23:10.963Z,101396.59
2022-09-20T07:25:37.333Z,101398.13
2022-09-20T07:28:03.656Z,101396.59
2022-09-20T07:30:29.990Z,101395.25
2022-09-20T07:32:56.304Z,101399.59
2022-09-20T07:35:22.600Z,101396.59
2022-09-20T07:37:48.904Z,101400.84
2022-09-20T07:40:15.787Z,101403.88
2022-09-20T07:42:42.362Z,101410.94
2022-09-20T07:45:08.961Z,101410.94
2022-09-20T07:47:35.535Z,101405.19
2022-09-20T07:50:02.503Z,101415.22
2022-09-20T07:52:29.018Z,101422.34
2022-09-20T07:54:56.142Z,101420.09
2022-09-20T07:57:22.487Z,101426.59
2022-09-20T07:59:48.808Z,101419.56
2022-09-20T08:02:15.395Z,101426.09
2022-09-20T08:04:41.732Z,101436.72
2022-09-20T08:07:08.058Z,101433.06
2022-09-20T08:09:34.369Z,101440.94
2022-09-20T08:14:05.342Z,101436.06
2022-09-20T08:14:47.865Z,101432.34
2022-09-20T08:17:14.176Z,101435.94
2022-09-20T08:19:40.610Z,101442.47
2022-09-20T08:22:07.043Z,101449.56
2022-09-20T08:24:33.389Z,101448.09
2022-09-20T08:26:59.741Z,101443.81
2022-09-20T08:29:26.055Z,101453.06
2022-09-20T08:31:53.014Z,101450.97
2022-09-20T08:34:19.370Z,101459.78
2022-09-20T08:36:46.937Z,101451.09
2022-09-20T08:42:12.821Z,101455.44
2022-09-20T08:44:45.325Z,101459.78
2022-09-20T08:47:21.874Z,101454.69
2022-09-20T08:49:48.291Z,101460.56
2022-09-20T08:52:18.787Z,101455.31
2022-09-20T08:54:45.109Z,101453.19
2022-09-20T08:57:14.094Z,101460.31
2022-09-20T08:59:40.830Z,101467.09
2022-09-20T09:02:17.124Z,101460.06
2022-09-20T09:04:44.696Z,101465.81
2022-09-20T09:07:14.309Z,101463.06
2022-09-20T09:09:41.893Z,101468.06
2022-09-20T09:12:13.983Z,101466.47
2022-09-20T09:14:49.423Z,101473.81
2022-09-20T09:17:16.629Z,101480.31
2022-09-20T09:19:46.850Z,101470.53
2022-09-20T09:22:17.486Z,101469.19
2022-09-20T09:24:43.831Z,101465.56
2022-09-20T09:27:17.401Z,101475.03
2022-09-20T09:29:50.957Z,101478.53
2022-09-20T09:32:21.670Z,101474.78
2022-09-20T09:34:48.017Z,101484.91
2022-09-20T09:37:24.171Z,101482.81
2022-09-20T09:40:07.382Z,101482.16
2022-09-20T09:42:33.781Z,101480.91
2022-09-20T09:45:12.718Z,101481.53
2022-09-20T09:47:39.029Z,101488.03
2022-09-20T09:50:09.720Z,101485.28
2022-09-20T09:52:36.477Z,101485.38
2022-09-20T09:55:05.458Z,101494.75
2022-09-20T09:57:34.386Z,101484.00
2022-09-20T10:00:18.622Z,101491.25
2022-09-20T10:03:00.392Z,101486.25
2022-09-20T10:05:38.811Z,101479.75
2022-09-20T10:08:10.689Z,101486.25
2022-09-20T10:10:41.409Z,101480.50
2022-09-20T10:13:19.878Z,101480.50
2022-09-20T10:15:55.401Z,101482.03
2022-09-20T10:18:27.069Z,101472.00
2022-09-20T10:20:59.341Z,101475.63
2022-09-20T10:26:33.914Z,101482.09
2022-09-20T10:29:04.082Z,101480.00
2022-09-20T10:31:36.763Z,101477.25
2022-09-20T10:34:22.536Z,101478.72
2022-09-20T10:36:53.505Z,101480.22
2022-09-20T10:39:29.003Z,101482.47
2022-09-20T10:42:39.035Z,101480.22
2022-09-20T10:45:44.358Z,101475.97
2022-09-20T10:48:12.283Z,101482.47
2022-09-20T10:50:38.777Z,101489.72
2022-09-20T10:53:09.091Z,101492.50
2022-09-20T10:55:47.323Z,101490.34
2022-09-20T10:58:31.850Z,101494.72
2022-09-20T11:01:02.159Z,101490.47
2022-09-20T11:03:33.469Z,101494.59
2022-09-20T11:06:18.729Z,101500.59
2022-09-20T11:08:45.827Z,101484.72
2022-09-20T11:11:21.361Z,101484.84
2022-09-20T11:13:47.634Z,101492.69
2022-09-20T11:16:20.068Z,101487.72
2022-09-20T11:18:48.266Z,101504.97
2022-09-20T11:21:16.506Z,101494.31
2022-09-20T11:23:45.052Z,101505.09
2022-09-20T11:26:12.831Z,101492.81
2022-09-20T11:28:40.682Z,101493.59
2022-09-20T11:31:07.855Z,101493.59
2022-09-20T11:33:41.433Z,101500.81
2022-09-20T11:36:09.619Z,101496.47
2022-09-20T11:38:53.005Z,101497.22
2022-09-20T11:41:23.056Z,101502.97
2022-09-20T11:43:49.369Z,101503.69
2022-09-20T11:46:19.930Z,101502.97
2022-09-20T11:48:47.383Z,101509.31
2022-09-20T11:51:19.599Z,101506.56
2022-09-20T11:53:57.917Z,101506.56
2022-09-20T11:56:27.681Z,101500.81
2022-09-20T11:59:00.746Z,101502.31
2022-09-20T12:01:37.136Z,101506.69
2022-09-20T12:04:31.284Z,101495.19
2022-09-20T12:07:03.483Z,101493.69
2022-09-20T12:09:38.311Z,101501.56
2022-09-20T12:12:14.551Z,101504.44
2022-09-20T12:14:42.161Z,101500.94
2022-09-20T12:17:28.418Z,101502.44
2022-09-20T12:19:54.757Z,101503.81
2022-09-20T12:22:27.317Z,101508.19
2022-09-20T12:25:13.521Z,101508.19
2022-09-20T12:27:39.775Z,101511.06
2022-09-20T12:30:15.914Z,101502.31
2022-09-20T12:32:43.451Z,101508.06
2022-09-20T12:35:28.809Z,101503.94
2022-09-20T12:37:55.515Z,101501.69
2022-09-20T12:40:22.164Z,101503.94
2022-09-20T12:42:53.793Z,101508.19
2022-09-20T12:45:20.102Z,101493.81
2022-09-20T12:47:53.005Z,101506.69
2022-09-20T12:50:37.702Z,101523.94
2022-09-20T12:53:04.204Z,101562.06
2022-09-20T12:55:36.710Z,101585.69
2022-09-20T12:58:13.328Z,101592.94
2022-09-20T13:00:59.253Z,101605.94
2022-09-20T13:03:29.623Z,101597.09
2022-09-20T13:06:12.392Z,101601.19
2022-09-20T13:08:54.062Z,101599.72
2022-09-20T13:11:20.877Z,101595.31
2022-09-20T13:13:51.590Z,101601.84
2022-09-20T13:16:26.308Z,101599.72
2022-09-20T13:19:04.148Z,101580.97
2022-09-20T13:21:31.003Z,101592.44
2022-09-20T13:23:57.326Z,101588.34
2022-09-20T13:26:27.450Z,101588.22
2022-09-20T13:28:54.517Z,101595.22
2022-09-20T13:31:20.854Z,101593.09
2022-09-20T13:33:47.494Z,101586.59
2022-09-20T13:36:13.811Z,101580.22
2022-09-20T13:38:40.319Z,101584.59
2022-09-20T13:41:09.143Z,101575.22
2022-09-20T13:43:42.891Z,101575.97
2022-09-20T13:46:09.233Z,101578.19
2022-09-20T13:48:35.590Z,101581.06
2022-09-20T13:51:02.408Z,101587.47
2022-09-20T13:53:41.023Z,101580.97
2022-09-20T13:56:16.794Z,101575.97
2022-09-20T13:58:43.103Z,101585.97
2022-09-20T14:01:19.531Z,101578.09
2022-09-20T14:03:45.868Z,101578.84
2022-09-20T14:06:13.510Z,101585.97
2022-09-20T14:08:43.808Z,101586.72
2022-09-20T14:11:10.310Z,101592.44
2022-09-20T14:13:40.213Z,101580.22
2022-09-20T14:16:06.703Z,101586.72
2022-09-20T14:18:33.006Z,101580.84
2022-09-20T14:21:00.142Z,101579.47
2022-09-20T14:23:26.978Z,101579.47
2022-09-20T14:26:06.270Z,101576.72
2022-09-20T14:28:32.600Z,101576.19
2022-09-20T14:31:06.119Z,101572.81
2022-09-20T14:33:32.663Z,101575.56
2022-09-20T14:35:59.279Z,101581.31
2022-09-20T14:38:26.046Z,101577.94
2022-09-20T14:40:52.639Z,101577.94
2022-09-20T14:43:26.367Z,101575.94
2022-09-20T14:45:54.204Z,101577.44
2022-09-20T14:48:21.321Z,101578.94
2022-09-20T14:51:07.716Z,101577.44
2022-09-20T14:53:37.082Z,101583.19
2022-09-20T14:56:06.429Z,101580.19
2022-09-20T14:58:33.126Z,101581.81
2022-09-20T15:01:05.804Z,101579.69
2022-09-20T15:03:39.000Z,101587.56
2022-09-20T15:06:06.421Z,101595.53
2022-09-20T15:08:36.589Z,101596.28
2022-09-20T15:11:03.039Z,101594.19
2022-09-20T15:13:29.347Z,101600.56
2022-09-20T15:15:55.660Z,101604.16
2022-09-20T15:18:22.735Z,101606.44
2022-09-20T15:20:49.561Z,101604.91
2022-09-20T15:23:15.882Z,101609.91
2022-09-20T15:25:42.208Z,101602.81
2022-09-20T15:28:10.979Z,101613.53
2022-09-20T15:30:37.482Z,101610.66
2022-09-20T15:33:03.843Z,101617.94
2022-09-20T15:35:30.156Z,101616.41
2022-09-20T15:37:56.487Z,101616.41
2022-09-20T15:40:22.831Z,101606.31
2022-09-20T15:42:49.224Z,101612.78
2022-09-20T15:45:15.533Z,101614.94
2022-09-20T15:47:41.848Z,101615.69
2022-09-20T15:50:08.615Z,101609.31
2022-09-20T15:52:36.136Z,101612.19
2022-09-20T15:55:03.740Z,101616.41
2022-09-20T15:57:30.799Z,101618.56
2022-09-20T15:59:58.622Z,101622.16
2022-09-20T16:02:25.083Z,101630.78
2022-09-20T16:04:54.640Z,101622.94
2022-09-20T16:07:25.571Z,101628.69
2022-09-20T16:09:52.626Z,101628.69
2022-09-20T16:12:19.395Z,101627.91
2022-09-20T16:14:45.719Z,101632.19
2022-09-20T16:17:12.075Z,101623.44
2022-09-20T16:19:38.553Z,101624.94
2022-09-20T16:22:04.884Z,101633.66
2022-09-20T16:24:33.005Z,101635.06
2022-09-20T16:27:00.704Z,101630.69
2022-09-20T16:29:29.307Z,101627.69
2022-09-20T16:31:55.912Z,101635.56
2022-09-20T16:34:31.093Z,101638.56
2022-09-20T16:36:58.592Z,101629.19
2022-09-20T16:39:27.467Z,101635.69
2022-09-20T16:41:54.390Z,101647.81
2022-09-20T16:44:20.702Z,101649.19
2022-09-20T16:46:47.409Z,101651.94
2022-09-20T16:49:14.115Z,101646.97
2022-09-20T16:51:41.211Z,101648.94
2022-09-20T16:54:12.082Z,101649.06
2022-09-20T16:56:39.065Z,101651.81
2022-09-20T16:59:05.486Z,101653.44
2022-09-20T17:01:31.957Z,101654.81
2022-09-20T17:03:58.515Z,101657.69
2022-09-20T17:06:24.849Z,101657.69
2022-09-20T17:08:55.567Z,101658.34
2022-09-20T17:11:25.249Z,101660.44
2022-09-20T17:13:51.934Z,101664.69
2022-09-20T17:16:19.361Z,101672.06
2022-09-20T17:18:45.704Z,101679.34
2022-09-20T17:21:13.727Z,101679.94
2022-09-20T17:23:48.711Z,101682.94
2022-09-20T17:26:18.046Z,101689.44
2022-09-20T17:28:45.022Z,101689.44
2022-09-20T17:31:12.045Z,101690.84
2022-09-20T17:33:38.434Z,101687.97
2022-09-20T17:36:04.782Z,101692.97
2022-09-20T17:38:33.479Z,101688.56
2022-09-20T17:41:00.442Z,101698.72
2022-09-20T17:43:28.840Z,101697.94
2022-09-20T17:45:56.593Z,101695.72
2022-09-20T17:48:25.894Z,101698.47
2022-09-20T17:50:56.004Z,101707.09
2022-09-20T17:53:22.309Z,101711.44
2022-09-20T17:55:54.854Z,101709.97
2022-09-20T17:58:21.343Z,101712.84
2022-09-20T18:00:47.718Z,101720.72
2022-09-20T18:03:14.850Z,101721.47
2022-09-20T18:05:41.185Z,101729.44
2022-09-20T18:08:07.523Z,101728.69
2022-09-20T18:10:33.860Z,101730.84
2022-09-20T18:13:01.009Z,101727.97
2022-09-20T18:15:27.746Z,101730.97
2022-09-20T18:17:54.652Z,101747.47
2022-09-20T18:20:21.022Z,101735.19
2022-09-20T18:22:47.703Z,101731.56
2022-09-20T18:25:14.006Z,101747.22
2022-09-20T18:27:40.350Z,101741.47
2022-09-20T18:30:06.941Z,101742.81
2022-09-20T18:32:33.250Z,101754.22
2022-09-20T18:34:59.552Z,101745.69
2022-09-20T18:37:25.890Z,101751.44
2022-09-20T18:39:52.204Z,101757.72
2022-09-20T18:42:18.518Z,101759.09
2022-09-20T18:44:45.950Z,101763.22
2022-09-20T18:47:12.290Z,101752.22
2022-09-20T18:49:38.593Z,101757.97
2022-09-20T18:52:05.415Z,101762.94
2022-09-20T18:54:33.253Z,101765.72
2022-09-20T18:56:59.782Z,101771.47
2022-09-20T18:59:26.584Z,101769.47
2022-09-20T19:01:58.542Z,101783.72
2022-09-20T19:04:30.812Z,101772.22
2022-09-20T19:07:09.216Z,101775.09
2022-09-20T19:09:49.592Z,101775.09
2022-09-20T19:12:35.505Z,101773.72
2022-09-20T19:15:01.764Z,101779.44
2022-09-20T19:17:40.292Z,101782.97
2022-09-20T19:20:11.874Z,101775.09
2022-09-20T19:22:51.464Z,101785.06
2022-09-20T19:25:19.336Z,101785.19
2022-09-20T19:27:45.831Z,101781.44
2022-09-20T19:30:12.938Z,101789.34
2022-09-20T19:32:39.445Z,101790.22
2022-09-20T19:35:05.955Z,101789.47
2022-09-20T19:37:52.824Z,101790.69
2022-09-20T19:40:25.289Z,101790.97
2022-09-20T19:43:09.088Z,101800.84
2022-09-20T19:45:55.556Z,101800.22
2022-09-20T19:48:38.236Z,101805.81
2022-09-20T19:51:05.334Z,101811.56
2022-09-20T19:53:31.748Z,101809.63
2022-09-20T19:56:03.421Z,101804.50
2022-09-20T19:58:29.819Z,101806.91
2022-09-20T20:00:57.911Z,101809.44
2022-09-20T20:03:26.151Z,101815.31
2022-09-20T20:05:54.793Z,101808.69
2022-09-20T20:08:27.150Z,101825.19
2022-09-20T20:10:53.387Z,101816.69
2022-09-20T20:13:57.497Z,101815.94
2022-09-20T20:16:25.199Z,101821.06
2022-09-20T20:19:10.499Z,101813.06
2022-09-20T20:21:40.028Z,101825.19
2022-09-20T20:24:21.734Z,101827.44
2022-09-20T20:26:48.068Z,101846.06
2022-09-20T20:29:14.426Z,101837.44
2022-09-20T20:31:40.782Z,101831.69
2022-09-20T20:34:08.814Z,101834.56
2022-09-20T20:36:35.470Z,101830.31
2022-09-20T20:39:02.815Z,101840.31
2022-09-20T20:41:31.831Z,101844.69
2022-09-20T20:43:58.270Z,101847.44
2022-09-20T20:46:25.191Z,101842.41
2022-09-20T20:48:51.668Z,101848.94
2022-09-20T20:51:18.968Z,101841.69
2022-09-20T20:53:47.135Z,101856.19
2022-09-20T20:56:17.222Z,101846.06
2022-09-20T20:58:43.841Z,101847.44
2022-09-20T21:01:11.183Z,101853.16
2022-09-20T21:03:37.535Z,101853.91
2022-09-20T21:06:04.497Z,101856.03
2022-09-20T21:08:32.025Z,101853.91
2022-09-20T21:11:02.418Z,101858.19
2022-09-20T21:13:29.563Z,101859.06
2022-09-20T21:16:02.496Z,101857.44
2022-09-20T21:18:28.902Z,101861.81
2022-09-20T21:20:55.214Z,101864.66
2022-09-20T21:23:21.522Z,101871.94
2022-09-20T21:25:49.071Z,101870.41
2022-09-20T21:28:15.383Z,101877.69
2022-09-20T21:30:41.760Z,101880.56
2022-09-20T21:33:08.100Z,101877.69
2022-09-20T21:35:34.406Z,101880.44
2022-09-20T21:38:00.974Z,101881.91
2022-09-20T21:40:27.350Z,101887.66
2022-09-20T21:42:53.732Z,101893.41
2022-09-20T21:45:24.759Z,101893.28
2022-09-20T21:47:51.109Z,101891.94
2022-09-20T21:50:17.421Z,101900.53
2022-09-20T21:52:46.401Z,101899.16
2022-09-20T21:55:12.705Z,101901.91
2022-09-20T21:57:39.019Z,101896.91
2022-09-20T22:00:05.746Z,101902.66
2022-09-20T22:02:38.899Z,101904.66
2022-09-20T22:05:05.222Z,101904.66
2022-09-20T22:07:31.530Z,101904.78
2022-09-20T22:09:57.857Z,101901.91
2022-09-20T22:12:24.289Z,101902.66
2022-09-20T22:14:50.598Z,101912.66
2022-09-20T22:17:16.904Z,101900.41
2022-09-20T22:19:43.579Z,101898.91
2022-09-20T22:22:09.884Z,101894.66
2022-09-20T22:24:36.281Z,101911.91
2022-09-20T22:27:02.580Z,101897.41
2022-09-20T22:29:28.883Z,101906.03
2022-09-20T22:31:55.196Z,101908.91
2022-09-20T22:34:21.754Z,101908.91
2022-09-20T22:36:48.091Z,101899.66
2022-09-20T22:39:14.718Z,101904.66
2022-09-20T22:41:41.280Z,101909.66
2022-09-20T22:44:07.606Z,101903.91
2022-09-20T22:46:33.993Z,101895.88
2022-09-20T22:49:00.306Z,101897.41
2022-09-20T22:51:27.524Z,101900.75
2022-09-20T22:53:53.846Z,101908.75
2022-09-20T22:56:24.867Z,101911.63
2022-09-20T22:58:51.915Z,101895.88
2022-09-20T23:01:25.239Z,101905.75
2022-09-20T23:03:58.428Z,101915.88
2022-09-20T23:06:28.578Z,101910.13
2022-09-20T23:08:59.078Z,101911.63
2022-09-20T23:11:25.406Z,101913.13
2022-09-20T23:13:58.218Z,101914.50
2022-09-20T23:16:25.379Z,101921.63
2022-09-20T23:18:52.063Z,101920.41
2022-09-20T23:21:18.456Z,101921.63
2022-09-20T23:23:44.765Z,101923.13
2022-09-20T23:26:12.076Z,101923.13
2022-09-20T23:28:38.826Z,101923.75
2022-09-20T23:31:06.147Z,101926.63
2022-09-20T23:33:32.527Z,101932.38
2022-09-20T23:35:58.862Z,101928.75
2022-09-20T23:38:25.386Z,101927.25
2022-09-20T23:40:51.717Z,101937.97
2022-09-20T23:43:18.033Z,101935.59
2022-09-20T23:45:44.383Z,101937.09
2022-09-20T23:48:10.717Z,101932.88
2022-09-20T23:50:37.180Z,101933.63
2022-09-20T23:53:03.527Z,101925.47
2022-09-20T23:55:29.833Z,101939.84
2022-09-20T23:57:59.033Z,101938.63
